Forecasts are only available for sites displaying the forecast symbol.

Some water levels are actually in metres AHD (Australian Height Datum), click individual sites for more details.

Scroll for more >

River gauges, storages, and weirs in the Murray–Darling Basin

Type Locationsort descending River Water level Flow Volume Release Water temp Salinity Rainfall
River Gauge Albury (Union Bridge) Murray 1.77 m 17/04/2021 8:15 Not measured Not measured Not measured 17.9°C 17/04/2021 8:15 47.8 μS/cm 17/04/2021 8:15 Not measured Full data
River Gauge Balranald Murrumbidgee 1.56 m 17/04/2021 7:45 1136 ML/Day 17/04/2021 7:45 Not measured Not measured 17.6°C 17/04/2021 7:45 111.3 μS/cm 17/04/2021 7:45 Not measured Full data
River Gauge Bandiana Kiewa 1.08 m 17/04/2021 7:45 584 ML/Day 17/04/2021 7:45 Not measured Not measured 12.5°C 17/04/2021 7:45 31.3 μS/cm 17/04/2021 7:45 Not measured Full data
River Gauge Barmah Choke Murray 2.35 m 17/04/2021 7:45 6711 ML/Day 17/04/2021 7:45 Not measured Not measured Not measured Not measured Not measured Full data
River Gauge Biggara Murray 0.42 m 17/04/2021 8:15 447 ML/Day 17/04/2021 8:15 Not measured Not measured 10.8°C 17/04/2021 8:15 43.3 μS/cm 17/04/2021 8:15 0.00 mm 16/04/2021 9:00 Full data
River Gauge Bringenbrong Bridge Murray 1.5 m 17/04/2021 8:15 3708 ML/Day 17/04/2021 8:15 Not measured Not measured Not measured Not measured Not measured Full data
River Gauge Burtundy Darling 0.74 m 17/04/2021 7:45 179 ML/Day 17/04/2021 7:45 Not measured Not measured 15.6°C 17/04/2021 7:45 431.7 μS/cm 17/04/2021 7:45 Not measured Full data
River Gauge Colemans Mitta 0.95 m 17/04/2021 8:15 246 ML/Day 17/04/2021 8:15 Not measured Not measured 10.1°C 17/04/2021 7:45 59.9 μS/cm 17/04/2021 7:45 Not measured Full data
River Gauge Colignan Murray 1.69 m 17/04/2021 7:45 5117 ML/Day 17/04/2021 7:45 Not measured Not measured 17.0°C 17/04/2021 7:45 -175.6 μS/cm 17/04/2021 7:45 Not measured Full data
River Gauge Corowa Murray 2.17 m 17/04/2021 8:15 9322 ML/Day 17/04/2021 8:15 Not measured Not measured 17.1°C 17/04/2021 8:15 49.8 μS/cm 17/04/2021 8:15 Not measured Full data
Storage Dartmouth Dam Mitta 461.65 m 17/04/2021 8:15 Not measured 2455 GL 17/04/2021 8:15 Not measured Not measured Not measured Not measured Full data
River Gauge Doctors Point Murray 2.74 m 17/04/2021 8:15 11173 ML/Day 17/04/2021 8:15 Not measured Not measured 18.2°C 17/04/2021 8:15 54.4 μS/cm 17/04/2021 8:15 Not measured Full data
River Gauge Echuca Wharf Murray 86.88 m 16/04/2021 7:45 Not measured Not measured Not measured Not measured Not measured Not measured Full data
River Gauge Edward Escape Wakool 0.66 m 17/04/2021 7:45 523 ML/Day 17/04/2021 7:45 Not measured Not measured 16.2°C 17/04/2021 7:45 58.2 μS/cm 17/04/2021 7:45 Not measured Full data
River Gauge Edward River Offtake Murray 2.37 m 17/04/2021 8:15 1491 ML/Day 17/04/2021 8:15 Not measured Not measured 16.9°C 17/04/2021 7:45 57.3 μS/cm 17/04/2021 7:45 Not measured Full data
Weirs Euston Weir Downstream Murray 42.94 m 17/04/2021 7:45 5410 ML/Day 17/04/2021 7:45 Not measured Not measured 16.8°C 17/04/2021 7:45 116.0 μS/cm 17/04/2021 7:45 Not measured Full data
Weirs Euston Weir Upstream Murray 47.6 m 17/04/2021 8:45 Not measured 37 GL 16/04/2021 7:45 Not measured Not measured Not measured 145.9 mm 5/03/2020 9:00 Full data
River Gauge Flow to South Australia Murray Not measured Not measured Not measured 5393.1 ML/d16/04/2021 7:45 Not measured Not measured Not measured Full data
River Gauge Frenchman Creek Murray 27.34 m 16/04/2021 7:45 Not measured Not measured 1197.0 ML/d16/04/2021 7:45 Not measured Not measured Not measured Full data
River Gauge Gulpa Creek Offtake Murray 2.45 m 17/04/2021 7:45 269 ML/Day 17/04/2021 7:45 Not measured Not measured Not measured Not measured Not measured Full data
River Gauge Hinnomunjie Mitta 0.58 m 17/04/2021 7:45 293 ML/Day 17/04/2021 7:45 Not measured Not measured 9.6°C 17/04/2021 7:45 34.8 μS/cm 17/04/2021 7:45 0.00 mm 15/04/2021 9:00 Full data
Storage Hume Dam Murray 181.8 m 17/04/2021 8:30 Not measured 1349 GL 17/04/2021 8:30 11004.3 ML/d17/04/2021 7:45 Not measured Not measured 0.00 mm 15/04/2021 9:00 Full data
River Gauge Jingellic Murray 1.63 m 17/04/2021 7:45 4065 ML/Day 17/04/2021 7:45 Not measured Not measured 13.8°C 17/04/2021 7:45 38.4 μS/cm 17/04/2021 7:45 0.00 mm 16/04/2021 9:00 Full data
River Gauge Kerang Loddon 0.35 m 17/04/2021 7:45 182 ML/Day 17/04/2021 7:45 Not measured Not measured 14.6°C 17/04/2021 7:45 109.7 μS/cm 17/04/2021 7:45 Not measured Full data
River Gauge Lake Albert Murray 0.64 m 17/04/2021 5:45 Not measured 252 GL 17/04/2021 5:45 Not measured Not measured Not measured Not measured Full data
River Gauge Lake Alexandrina Murray 0.58 m 17/04/2021 5:45 Not measured 1502 GL 17/04/2021 5:45 Not measured Not measured 718.7 μS/cm 17/04/2021 6:45 Not measured Full data
Storage Lake Victoria Murray 22.48 m 17/04/2021 6:45 Not measured 199 GL 17/04/2021 6:45 Not measured 17.4°C 16/04/2021 20:00 173.7 μS/cm 16/04/2021 20:00 Not measured Full data
Weirs Lock 1 Downstream Murray 0.58 m 17/04/2021 6:45 Not measured Not measured 3084.6 ML/d16/04/2021 7:45 Not measured Not measured Not measured Full data
Weirs Lock 1 Upstream Murray 3.24 m 17/04/2021 6:45 Not measured Not measured Not measured 18.8°C 17/04/2021 6:45 239.6 μS/cm 17/04/2021 6:45 Not measured Full data
Weirs Lock 2 Downstream Murray 3.32 m 17/04/2021 6:45 Not measured Not measured Not measured Not measured Not measured Not measured Full data
Weirs Lock 2 Upstream Murray 6.15 m 17/04/2021 6:45 Not measured Not measured Not measured 18.8°C 17/04/2021 6:45 233.5 μS/cm 17/04/2021 6:45 Not measured Full data
Weirs Lock 3 Downstream Murray 6.3 m 17/04/2021 6:45 Not measured Not measured Not measured Not measured Not measured Not measured Full data
Weirs Lock 3 Upstream Murray 9.84 m 17/04/2021 6:45 Not measured Not measured Not measured Not measured Not measured Not measured Full data
Weirs Lock 4 Downstream Murray 10.27 m 17/04/2021 6:45 Not measured Not measured Not measured Not measured Not measured Not measured Full data
Weirs Lock 4 Upstream Murray 13.22 m 17/04/2021 6:45 Not measured Not measured Not measured Not measured Not measured Not measured Full data
Weirs Lock 5 Downstream Murray 13.31 m 17/04/2021 6:45 Not measured Not measured Not measured Not measured Not measured Not measured Full data
Weirs Lock 5 Upstream Murray 16.31 m 17/04/2021 6:45 Not measured Not measured Not measured 19.0°C 17/04/2021 6:45 179.2 μS/cm 17/04/2021 6:45 Not measured Full data
Weirs Lock 6 Downstream Murray 16.31 m 17/04/2021 6:45 Not measured Not measured Not measured Not measured Not measured Not measured Full data
Weirs Lock 6 Upstream Murray 19.27 m 17/04/2021 6:45 Not measured Not measured Not measured 19.0°C 17/04/2021 6:45 156.7 μS/cm 17/04/2021 6:45 Not measured Full data
Weirs Lock 7 Downstream Murray 20.16 m 17/04/2021 6:30 Not measured Not measured Not measured Not measured Not measured Not measured Full data
Weirs Lock 7 Upstream Murray 22.33 m 17/04/2021 6:45 Not measured Not measured Not measured 18.9°C 17/04/2021 6:45 114.0 μS/cm 17/04/2021 6:45 Not measured Full data
Weirs Lock 8 Upstream Murray 24.2 m 17/04/2021 6:45 Not measured Not measured Not measured 18.6°C 17/04/2021 6:45 113.4 μS/cm 17/04/2021 6:45 Not measured Full data
Weirs Lock 9 Downstream Murray 24.2 m 17/04/2021 6:45 Not measured Not measured Not measured Not measured Not measured Not measured Full data
Weirs Lock 9 Upstream Murray 27.34 m 17/04/2021 6:45 Not measured Not measured Not measured 18.6°C 17/04/2021 6:45 125.7 μS/cm 17/04/2021 6:45 Not measured Full data
River Gauge McCoy Bridge Goulburn 1.79 m 17/04/2021 7:45 1477 ML/Day 17/04/2021 7:45 Not measured Not measured 15.8°C 17/04/2021 7:45 65.7 μS/cm 17/04/2021 7:45 Not measured Full data
Storage Menindee Lakes Darling Not measured Not measured 338 GL 16/04/2021 7:45 Not measured Not measured Not measured Not measured Full data
Weirs Mildura Weir downstream Murray 30.85 m 17/04/2021 7:45 Not measured Not measured Not measured 17.9°C 17/04/2021 7:45 104.4 μS/cm 17/04/2021 7:45 Not measured Full data
River Gauge Morgan Downstream Murray Not measured Not measured Not measured 2505.9 ML/d17/04/2021 6:45 Not measured 254.1 μS/cm 17/04/2021 6:45 Not measured Full data
River Gauge Mulwala Canal Murray Not measured Not measured Not measured 2575.1 ML/d17/04/2021 8:45 Not measured Not measured Not measured Full data
River Gauge Mundoo Barrage Murray 0.59 m 16/04/2021 7:45 Not measured Not measured Not measured Not measured Not measured Not measured Full data
River Gauge Murray Bridge Murray 0.53 m 17/04/2021 6:45 Not measured Not measured Not measured 19.0°C 17/04/2021 6:45 283.3 μS/cm 17/04/2021 6:45 Not measured Full data
River Gauge Peechelba Ovens 126.43 m 17/04/2021 7:45 498 ML/Day 17/04/2021 7:45 Not measured Not measured 14.2°C 17/04/2021 7:45 53.4 μS/cm 17/04/2021 7:45 Not measured Full data
River Gauge Pinegrove Murray 1.13 m 17/04/2021 8:15 301 ML/Day 17/04/2021 8:15 Not measured Not measured 11.3°C 17/04/2021 8:15 52.4 μS/cm 17/04/2021 8:15 0.00 mm 16/04/2021 9:00 Full data
River Gauge Redcliffs Murray Not measured Not measured Not measured Not measured Not measured 106.8 μS/cm 16/04/2021 7:45 Not measured Full data
River Gauge Rochester Campaspe 1.65 m 17/04/2021 7:45 50 ML/Day 17/04/2021 7:45 Not measured Not measured 14.5°C 17/04/2021 7:45 638.4 μS/cm 17/04/2021 7:45 0.00 mm 15/04/2021 9:00 Full data
River Gauge Rufus River Murray 20.47 m 16/04/2021 7:45 Not measured Not measured 2092.8 ML/d16/04/2021 7:45 Not measured 166.1 μS/cm 17/04/2021 6:45 Not measured Full data
Weirs Steven's Weir Downstream Edward 1.03 m 17/04/2021 7:45 734 ML/Day 17/04/2021 7:45 Not measured Not measured 16.5°C 17/04/2021 7:45 63.2 μS/cm 17/04/2021 7:45 Not measured Full data
Weirs Steven's Weir Upstream Edward 4.7 m 17/04/2021 8:15 Not measured Not measured Not measured Not measured Not measured Not measured Full data
River Gauge Stoney Crossing Murray 1.32 m 17/04/2021 7:45 285 ML/Day 17/04/2021 7:45 Not measured 277.2 ML/d16/04/2021 7:45 16.8°C 17/04/2021 7:45 196.4 μS/cm 17/04/2021 7:45 Not measured Full data
River Gauge Swan Hill Murray 0.92 m 17/04/2021 7:45 4061 ML/Day 17/04/2021 7:45 Not measured Not measured 16.3°C 17/04/2021 7:45 85.8 μS/cm 17/04/2021 7:45 Not measured Full data
River Gauge Tallandoon Mitta 1.37 m 17/04/2021 7:45 513 ML/Day 17/04/2021 7:45 Not measured Not measured 12.3°C 17/04/2021 7:45 54.0 μS/cm 17/04/2021 7:45 Not measured Full data
River Gauge Tauwitchere Barrage Murray 0.58 m 17/04/2021 6:45 Not measured Not measured Not measured Not measured Not measured Not measured Full data
River Gauge Tocumwal Murray 2 m 17/04/2021 7:45 8622 ML/Day 17/04/2021 7:45 Not measured Not measured 16.0°C 17/04/2021 7:45 62.5 μS/cm 17/04/2021 7:45 Not measured Full data
River Gauge Torrumbarry Headworks Murray 85.17 m 17/04/2021 7:45 Not measured Not measured 2166.6 ML/d17/04/2021 7:45 Not measured Not measured Not measured Full data
Weirs Torrumbarry Weir Downstream Murray 1.95 m 17/04/2021 7:45 5346 ML/Day 17/04/2021 7:45 Not measured Not measured 17.3°C 17/04/2021 7:45 76.5 μS/cm 17/04/2021 7:45 Not measured Full data
Weirs Torrumbarry Weir Upstream Murray 86.05 m 17/04/2021 7:15 Not measured 37 GL 16/04/2021 8:45 Not measured 18.0°C 16/04/2021 8:45 0.00 μS/cm 17/04/2021 5:45 0.00 mm 16/04/2021 9:00 Full data
River Gauge Wakool Canal Wakool 0.67 m 17/04/2021 7:45 Not measured Not measured 870.1 ML/d17/04/2021 8:45 Not measured Not measured Not measured Full data
River Gauge Wakool Junction Murray 2.14 m 17/04/2021 7:45 4509 ML/Day 17/04/2021 7:45 Not measured Not measured 16.3°C 17/04/2021 7:45 89.3 μS/cm 17/04/2021 7:45 Not measured Full data
River Gauge Weir 32 Upstream Darling 1.42 m 17/04/2021 7:45 313 ML/Day 17/04/2021 7:45 Not measured Not measured 18.0°C 17/04/2021 7:45 383.5 μS/cm 17/04/2021 7:45 Not measured Full data
Weirs Wentworth Weir Murray 27.56 m 17/04/2021 8:45 Not measured Not measured 4898.0 ML/d17/04/2021 8:45 Not measured 104.0 μS/cm 16/04/2021 7:45 Not measured Full data
River Gauge Wilcania Darling 5.69 m 17/04/2021 7:45 13710 ML/Day 17/04/2021 7:45 Not measured Not measured 20.1°C 17/04/2021 7:45 199.8 μS/cm 17/04/2021 7:45 Not measured Full data
River Gauge Yarrawonga Main Channel Murray 123.49 m 17/04/2021 7:45 Not measured Not measured 882.2 ML/d17/04/2021 7:45 Not measured Not measured Not measured Full data
Weirs Yarrawonga Weir Downstream Murray 1.33 m 17/04/2021 8:00 7974 ML/Day 17/04/2021 8:00 Not measured Not measured 16.0°C 17/04/2021 8:00 62.2 μS/cm 17/04/2021 8:00 Not measured Full data
Weirs Yarrawonga Weir Upstream Murray 124.84 m 17/04/2021 8:45 Not measured Not measured Not measured Not measured Not measured 0.00 mm 17/04/2021 9:00 Full data